createdAt,value
2018-04-17T00:02:05.832Z,9.23
2018-04-17T00:04:32.987Z,8.93
2018-04-17T00:06:59.426Z,9.40
2018-04-17T00:09:25.951Z,8.57
2018-04-17T00:11:52.362Z,8.20
2018-04-17T00:14:19.528Z,7.10
2018-04-17T00:16:46.692Z,7.33
2018-04-17T00:19:13.237Z,7.80
2018-04-17T00:21:39.621Z,8.97
2018-04-17T00:24:06.088Z,10.00
2018-04-17T00:26:32.488Z,9.00
2018-04-17T00:28:59.019Z,8.10
2018-04-17T00:31:25.419Z,8.90
2018-04-17T00:33:51.889Z,7.03
2018-04-17T00:36:19.019Z,8.33
2018-04-17T00:38:45.455Z,9.30
2018-04-17T00:41:11.848Z,9.83
2018-04-17T00:43:38.289Z,8.93
2018-04-17T00:46:04.753Z,9.87
2018-04-17T00:48:31.140Z,11.17
2018-04-17T00:50:57.551Z,11.37
2018-04-17T00:53:35.994Z,16.40
2018-04-17T00:56:02.403Z,10.70
2018-04-17T00:58:28.771Z,10.83
2018-04-17T01:00:55.179Z,9.43
2018-04-17T01:03:21.606Z,9.60
2018-04-17T01:05:48.023Z,11.17
2018-04-17T01:08:14.436Z,9.77
2018-04-17T01:10:40.898Z,14.43
2018-04-17T01:13:07.299Z,12.00
2018-04-17T01:15:36.809Z,9.97
2018-04-17T01:18:03.959Z,11.37
2018-04-17T01:20:31.108Z,10.30
2018-04-17T01:22:58.243Z,9.77
2018-04-17T01:25:24.810Z,9.90
2018-04-17T01:27:51.219Z,10.13
2018-04-17T01:30:17.598Z,12.80
2018-04-17T01:32:43.999Z,10.30
2018-04-17T01:35:10.400Z,10.63
2018-04-17T01:37:36.800Z,10.20
2018-04-17T01:40:03.217Z,11.83
2018-04-17T01:42:29.696Z,9.63
2018-04-17T01:44:56.084Z,10.83
2018-04-17T01:47:22.507Z,13.53
2018-04-17T01:49:48.928Z,11.10
2018-04-17T01:52:15.432Z,10.97
2018-04-17T01:54:41.916Z,14.00
2018-04-17T01:57:08.311Z,10.60
2018-04-17T01:59:34.809Z,9.47
2018-04-17T02:02:01.248Z,9.20
2018-04-17T02:04:28.631Z,9.73
2018-04-17T02:06:55.784Z,10.30
2018-04-17T02:09:23.015Z,10.23
2018-04-17T02:11:49.432Z,9.93
2018-04-17T02:14:15.920Z,11.00
2018-04-17T02:16:42.390Z,11.90
2018-04-17T02:19:08.942Z,11.80
2018-04-17T02:21:35.343Z,10.88
2018-04-17T02:24:02.528Z,10.80
2018-04-17T02:26:29.156Z,11.07
2018-04-17T02:28:55.583Z,11.43
2018-04-17T02:31:22.145Z,12.45
2018-04-17T02:33:49.439Z,12.00
2018-04-17T02:36:15.873Z,12.17
2018-04-17T02:38:42.300Z,10.53
2018-04-17T02:41:08.739Z,10.90
2018-04-17T02:43:35.250Z,10.57
2018-04-17T02:46:01.656Z,11.07
2018-04-17T02:48:28.160Z,10.50
2018-04-17T02:50:54.595Z,10.75
2018-04-17T02:53:21.080Z,13.75
2018-04-17T02:55:47.459Z,10.77
2018-04-17T02:58:14.106Z,11.40
2018-04-17T03:00:40.496Z,12.02
2018-04-17T03:03:06.922Z,11.32
2018-04-17T03:05:33.384Z,14.10
2018-04-17T03:07:59.876Z,11.67
2018-04-17T03:10:26.303Z,11.12
2018-04-17T03:12:52.871Z,11.85
2018-04-17T03:15:19.277Z,10.35
2018-04-17T03:17:46.442Z,10.65
2018-04-17T03:20:12.874Z,11.23
2018-04-17T03:22:39.340Z,10.20
2018-04-17T03:25:05.722Z,8.95
2018-04-17T03:27:32.132Z,10.15
2018-04-17T03:29:59.376Z,10.07
2018-04-17T03:32:25.803Z,9.80
2018-04-17T03:34:52.271Z,9.98
2018-04-17T03:37:18.688Z,10.07
2018-04-17T03:39:45.850Z,9.32
2018-04-17T03:42:12.408Z,10.52
2018-04-17T03:44:38.828Z,9.68
2018-04-17T03:47:05.211Z,12.98
2018-04-17T03:49:31.639Z,11.25
2018-04-17T03:51:58.126Z,11.45
2018-04-17T03:54:24.520Z,11.55
2018-04-17T03:56:50.940Z,12.75
2018-04-17T03:59:17.372Z,11.80
2018-04-17T04:01:43.804Z,13.00
2018-04-17T04:04:10.259Z,11.38
2018-04-17T04:06:37.415Z,11.57
2018-04-17T04:09:05.590Z,12.27
2018-04-17T04:11:32.027Z,11.57
2018-04-17T04:13:58.432Z,11.73
2018-04-17T04:16:37.025Z,14.57
2018-04-17T04:19:16.521Z,13.40
2018-04-17T04:24:57.352Z,11.70
2018-04-17T04:27:24.478Z,15.65
2018-04-17T04:29:50.910Z,18.50
2018-04-17T04:32:17.396Z,24.73
2018-04-17T04:34:43.834Z,22.23
2018-04-17T04:37:11.027Z,12.88
2018-04-17T04:39:37.503Z,12.95
2018-04-17T04:42:03.923Z,13.57
2018-04-17T04:44:30.475Z,12.50
2018-04-17T04:46:56.920Z,12.10
2018-04-17T04:49:24.079Z,12.32
2018-04-17T04:51:51.290Z,12.77
2018-04-17T04:54:17.707Z,14.35
2018-04-17T04:56:44.203Z,21.80
2018-04-17T04:59:10.582Z,16.62
2018-04-17T05:01:37.044Z,13.10
2018-04-17T05:04:03.530Z,12.00
2018-04-17T05:06:30.423Z,12.00
2018-04-17T05:08:57.688Z,12.68
2018-04-17T05:11:24.876Z,11.85
2018-04-17T05:13:51.347Z,11.43
2018-04-17T05:16:18.029Z,11.43
2018-04-17T05:18:44.476Z,10.65
2018-04-17T05:21:10.902Z,10.25
2018-04-17T05:23:37.336Z,10.73
2018-04-17T05:26:03.764Z,11.10
2018-04-17T05:28:30.214Z,9.50
2018-04-17T05:30:56.644Z,9.90
2018-04-17T05:33:23.076Z,9.97
2018-04-17T05:35:49.495Z,11.67
2018-04-17T05:38:15.992Z,10.83
2018-04-17T05:40:44.371Z,9.33
2018-04-17T05:43:11.739Z,9.80
2018-04-17T05:45:38.987Z,8.23
2018-04-17T05:48:06.157Z,10.00
2018-04-17T05:50:32.636Z,9.50
2018-04-17T05:52:59.060Z,8.70
2018-04-17T05:55:25.443Z,10.03
2018-04-17T05:57:51.899Z,11.33
2018-04-17T06:00:18.321Z,9.67
2018-04-17T06:02:44.729Z,10.57
2018-04-17T06:05:11.869Z,9.57
2018-04-17T06:07:39.020Z,9.33
2018-04-17T06:10:06.224Z,9.23
2018-04-17T06:12:32.647Z,11.40
2018-04-17T06:14:59.116Z,10.83
2018-04-17T06:17:25.536Z,9.50
2018-04-17T06:19:52.018Z,13.63
2018-04-17T06:22:18.483Z,10.10
2018-04-17T06:24:45.052Z,9.67
2018-04-17T06:27:11.507Z,10.20
2018-04-17T06:29:38.639Z,11.73
2018-04-17T06:32:05.096Z,12.03
2018-04-17T06:34:32.251Z,12.23
2018-04-17T06:36:58.625Z,11.87
2018-04-17T06:39:25.164Z,11.47
2018-04-17T06:41:51.576Z,11.50
2018-04-17T06:44:17.985Z,12.90
2018-04-17T06:46:44.398Z,11.83
2018-04-17T06:49:11.629Z,14.27
2018-04-17T06:51:38.051Z,9.67
2018-04-17T06:54:04.551Z,10.23
2018-04-17T06:56:30.967Z,7.67
2018-04-17T06:58:57.439Z,7.33
2018-04-17T07:01:23.875Z,7.70
2018-04-17T07:03:50.371Z,7.30
2018-04-17T07:06:16.815Z,7.90
2018-04-17T07:08:43.216Z,7.03
2018-04-17T07:11:10.513Z,6.90
2018-04-17T07:13:36.936Z,6.23
2018-04-17T07:16:03.420Z,7.20
2018-04-17T07:18:30.635Z,6.80
2018-04-17T07:20:57.125Z,7.10
2018-04-17T07:23:23.604Z,7.33
2018-04-17T07:25:50.020Z,7.17
2018-04-17T07:28:16.537Z,7.70
2018-04-17T07:30:42.935Z,6.90
2018-04-17T07:33:09.402Z,7.70
2018-04-17T07:35:35.783Z,7.40
2018-04-17T07:38:02.284Z,9.33
2018-04-17T07:40:28.802Z,7.80
2018-04-17T07:42:55.402Z,7.87
2018-04-17T07:45:22.639Z,13.20
2018-04-17T07:50:57.375Z,7.30
2018-04-17T07:53:24.004Z,8.23
2018-04-17T07:55:50.576Z,7.73
2018-04-17T07:58:17.846Z,7.27
2018-04-17T08:00:45.189Z,7.77
2018-04-17T08:03:11.720Z,7.60
2018-04-17T08:05:38.947Z,7.60
2018-04-17T08:08:05.591Z,7.73
2018-04-17T08:10:32.136Z,7.47
2018-04-17T08:12:58.587Z,9.60
2018-04-17T08:15:25.860Z,7.90
2018-04-17T08:17:52.301Z,7.77
2018-04-17T08:20:18.830Z,8.10
2018-04-17T08:22:45.419Z,8.80
2018-04-17T08:25:11.927Z,7.47
2018-04-17T08:27:38.373Z,7.40
2018-04-17T08:30:04.998Z,7.97
2018-04-17T08:32:31.470Z,8.23
2018-04-17T08:34:57.905Z,7.17
2018-04-17T08:37:24.447Z,7.53
2018-04-17T08:39:51.642Z,6.60
2018-04-17T08:42:18.146Z,6.30
2018-04-17T08:44:45.526Z,10.33
2018-04-17T08:47:12.047Z,8.40
2018-04-17T08:49:38.552Z,6.80
2018-04-17T08:52:05.137Z,6.60
2018-04-17T08:54:31.688Z,6.80
2018-04-17T08:56:58.210Z,8.20
2018-04-17T08:59:24.693Z,7.03
2018-04-17T09:01:51.991Z,8.43
2018-04-17T09:04:18.477Z,7.00
2018-04-17T09:06:45.030Z,7.20
2018-04-17T09:09:13.826Z,7.40
2018-04-17T09:11:41.153Z,7.90
2018-04-17T09:14:08.630Z,7.00
2018-04-17T09:16:35.914Z,7.73
2018-04-17T09:19:02.413Z,8.50
2018-04-17T09:21:29.663Z,6.80
2018-04-17T09:23:56.212Z,8.50
2018-04-17T09:26:22.691Z,6.93
2018-04-17T09:28:49.365Z,7.83
2018-04-17T09:31:15.898Z,6.97
2018-04-17T09:33:42.977Z,7.57
2018-04-17T09:36:09.841Z,6.80
2018-04-17T09:38:37.088Z,7.37
2018-04-17T09:41:03.589Z,7.60
2018-04-17T09:43:30.832Z,7.43
2018-04-17T09:45:58.149Z,6.57
2018-04-17T09:48:24.674Z,7.60
2018-04-17T09:50:51.239Z,6.57
2018-04-17T09:53:18.230Z,7.40
2018-04-17T09:55:44.817Z,8.10
2018-04-17T09:58:11.382Z,4.93
2018-04-17T10:00:44.633Z,6.60
2018-04-17T10:03:11.455Z,5.57
2018-04-17T10:05:38.145Z,5.60
2018-04-17T10:08:05.529Z,4.77
2018-04-17T10:10:32.228Z,5.33
2018-04-17T10:12:58.930Z,6.60
2018-04-17T10:15:25.497Z,6.20
2018-04-17T10:17:52.034Z,5.77
2018-04-17T10:20:18.584Z,5.57
2018-04-17T10:22:45.147Z,5.93
2018-04-17T10:25:11.672Z,5.53
2018-04-17T10:27:38.939Z,5.50
2018-04-17T10:30:05.446Z,7.63
2018-04-17T10:32:32.702Z,5.27
2018-04-17T10:34:59.881Z,3.80
2018-04-17T10:37:26.411Z,5.27
2018-04-17T10:39:52.938Z,4.63
2018-04-17T10:42:19.476Z,5.07
2018-04-17T10:44:46.016Z,3.33
2018-04-17T10:47:13.267Z,4.63
2018-04-17T10:49:39.789Z,2.97
2018-04-17T10:52:07.048Z,3.50
2018-04-17T10:54:33.522Z,3.60
2018-04-17T10:57:00.001Z,3.23
2018-04-17T10:59:27.265Z,4.47
2018-04-17T11:01:53.745Z,6.03
2018-04-17T11:04:20.239Z,3.83
2018-04-17T11:06:46.738Z,4.00
2018-04-17T11:09:13.238Z,2.90
2018-04-17T11:11:39.736Z,3.53
2018-04-17T11:14:07.035Z,2.60
2018-04-17T11:16:33.829Z,6.60
2018-04-17T11:21:56.482Z,3.10
2018-04-17T11:24:22.980Z,2.93
2018-04-17T11:26:49.465Z,4.83
2018-04-17T11:29:15.944Z,4.03
2018-04-17T11:31:42.380Z,2.80
2018-04-17T11:34:08.868Z,2.67
2018-04-17T11:36:35.329Z,3.40
2018-04-17T11:39:11.280Z,2.90
2018-04-17T11:41:38.507Z,4.30
2018-04-17T11:44:04.964Z,2.70
2018-04-17T11:46:32.228Z,2.27
2018-04-17T11:48:58.632Z,2.50
2018-04-17T11:51:25.084Z,2.60
2018-04-17T11:53:52.260Z,2.40
2018-04-17T11:56:18.674Z,2.50
2018-04-17T11:58:45.807Z,2.67
2018-04-17T12:01:12.957Z,3.10
2018-04-17T12:03:40.154Z,2.30
2018-04-17T12:06:06.728Z,3.63
2018-04-17T12:08:33.216Z,2.53
2018-04-17T12:10:59.632Z,2.90
2018-04-17T12:13:26.131Z,3.60
2018-04-17T12:15:52.597Z,3.20
2018-04-17T12:18:19.020Z,2.73
2018-04-17T12:20:46.156Z,3.90
2018-04-17T12:23:13.385Z,3.00
2018-04-17T12:25:39.888Z,4.50
2018-04-17T12:28:06.439Z,2.00
2018-04-17T12:30:32.819Z,2.03
2018-04-17T12:32:59.969Z,2.60
2018-04-17T12:35:26.458Z,2.77
2018-04-17T12:38:29.093Z,2.83
2018-04-17T12:43:51.535Z,3.57
2018-04-17T12:46:18.096Z,2.83
2018-04-17T12:48:44.595Z,3.60
2018-04-17T12:51:11.122Z,2.70
2018-04-17T12:53:37.585Z,3.53
2018-04-17T12:56:04.112Z,2.87
2018-04-17T12:58:31.370Z,2.97
2018-04-17T13:00:57.849Z,4.53
2018-04-17T13:03:24.302Z,5.07
2018-04-17T13:05:51.608Z,5.47
2018-04-17T13:08:18.127Z,2.83
2018-04-17T13:10:44.677Z,2.80
2018-04-17T13:13:11.164Z,3.20
2018-04-17T13:15:38.422Z,3.23
2018-04-17T13:18:04.961Z,3.70
2018-04-17T13:20:31.470Z,4.93
2018-04-17T13:22:58.922Z,4.03
2018-04-17T13:25:26.369Z,3.57
2018-04-17T13:27:54.117Z,3.40
2018-04-17T13:30:20.939Z,4.60
2018-04-17T13:32:47.670Z,3.47
2018-04-17T13:35:14.135Z,3.43
2018-04-17T13:37:41.022Z,3.93
2018-04-17T13:40:07.635Z,4.57
2018-04-17T13:42:34.116Z,3.70
2018-04-17T13:45:00.823Z,5.00
2018-04-17T13:47:28.090Z,6.17
2018-04-17T13:49:54.618Z,5.10
2018-04-17T13:52:21.881Z,3.57
2018-04-17T13:54:48.361Z,4.00
2018-04-17T13:57:14.833Z,3.90
2018-04-17T13:59:42.139Z,4.70
2018-04-17T14:02:08.636Z,3.93
2018-04-17T14:04:36.024Z,2.90
2018-04-17T14:07:02.509Z,3.63
2018-04-17T14:09:29.720Z,3.63
2018-04-17T14:11:56.226Z,3.60
2018-04-17T14:14:22.802Z,3.57
2018-04-17T14:16:49.282Z,3.70
2018-04-17T14:19:15.767Z,3.20
2018-04-17T14:21:42.394Z,5.30
2018-04-17T14:24:08.926Z,4.40
2018-04-17T14:26:36.139Z,3.67
2018-04-17T14:29:02.630Z,3.23
2018-04-17T14:31:29.338Z,4.40
2018-04-17T14:33:55.838Z,3.73
2018-04-17T14:36:23.134Z,4.47
2018-04-17T14:38:49.734Z,4.73
2018-04-17T14:41:16.204Z,3.60
2018-04-17T14:43:42.891Z,4.40
2018-04-17T14:46:09.370Z,4.00
2018-04-17T14:48:35.966Z,3.97
2018-04-17T14:51:03.202Z,5.20
2018-04-17T14:53:29.658Z,4.23
2018-04-17T14:55:56.931Z,5.00
2018-04-17T14:58:23.422Z,4.50
2018-04-17T15:00:49.956Z,4.00
2018-04-17T15:03:16.491Z,4.20
2018-04-17T15:05:42.940Z,4.73
2018-04-17T15:08:10.169Z,4.20
2018-04-17T15:10:36.801Z,3.83
2018-04-17T15:13:03.299Z,5.77
2018-04-17T15:15:29.888Z,5.20
2018-04-17T15:17:57.824Z,6.20
2018-04-17T15:20:24.275Z,6.73
2018-04-17T15:22:50.780Z,7.10
2018-04-17T15:25:17.290Z,7.33
2018-04-17T15:27:43.848Z,7.13
2018-04-17T15:30:10.571Z,5.83
2018-04-17T15:32:37.138Z,6.27
2018-04-17T15:35:03.710Z,5.50
2018-04-17T15:37:31.417Z,4.67
2018-04-17T15:39:58.128Z,5.07
2018-04-17T15:42:25.585Z,5.00
2018-04-17T15:44:55.376Z,3.90
2018-04-17T15:47:22.840Z,5.73
2018-04-17T15:49:49.384Z,4.87
2018-04-17T15:52:16.857Z,5.30
2018-04-17T15:54:43.425Z,4.97
2018-04-17T15:57:10.018Z,3.80
2018-04-17T15:59:37.262Z,4.73
2018-04-17T16:02:04.984Z,5.30
2018-04-17T16:04:32.449Z,5.30
2018-04-17T16:06:58.946Z,5.30
2018-04-17T16:09:25.658Z,5.03
2018-04-17T16:11:52.334Z,5.63
2018-04-17T16:14:18.824Z,5.70
2018-04-17T16:16:46.138Z,5.43
2018-04-17T16:19:13.304Z,5.53
2018-04-17T16:21:41.189Z,5.47
2018-04-17T16:24:07.943Z,6.13
2018-04-17T16:26:34.520Z,5.67
2018-04-17T16:29:01.085Z,5.23
2018-04-17T16:31:28.511Z,5.10
2018-04-17T16:33:55.050Z,4.40
2018-04-17T16:36:21.583Z,4.87
2018-04-17T16:38:48.093Z,4.40
2018-04-17T16:41:14.731Z,5.03
2018-04-17T16:43:41.213Z,4.67
2018-04-17T16:46:07.939Z,4.80
2018-04-17T16:48:34.378Z,4.90
2018-04-17T16:51:00.877Z,4.90
2018-04-17T16:53:27.557Z,6.33
2018-04-17T16:55:54.067Z,5.93
2018-04-17T16:58:20.598Z,5.40
2018-04-17T17:00:47.100Z,5.83
2018-04-17T17:03:13.703Z,6.30
2018-04-17T17:05:40.217Z,5.97
2018-04-17T17:08:06.722Z,6.20
2018-04-17T17:10:33.201Z,5.83
2018-04-17T17:12:59.714Z,6.33
2018-04-17T17:15:26.286Z,6.70
2018-04-17T17:17:52.781Z,6.03
2018-04-17T17:20:19.298Z,6.63
2018-04-17T17:22:46.524Z,5.37
2018-04-17T17:25:13.768Z,7.20
2018-04-17T17:27:40.994Z,6.30
2018-04-17T17:30:07.530Z,6.70
2018-04-17T17:32:34.043Z,5.90
2018-04-17T17:35:00.522Z,5.30
2018-04-17T17:37:27.831Z,6.13
2018-04-17T17:39:54.495Z,7.00
2018-04-17T17:42:21.027Z,6.40
2018-04-17T17:44:47.530Z,6.53
2018-04-17T17:47:14.092Z,6.90
2018-04-17T17:49:40.627Z,6.63
2018-04-17T17:52:07.110Z,5.83
2018-04-17T17:54:33.626Z,6.17
2018-04-17T17:57:01.089Z,7.20
2018-04-17T17:59:28.469Z,8.30
2018-04-17T18:01:54.975Z,7.80
2018-04-17T18:04:22.287Z,7.00
2018-04-17T18:06:48.806Z,6.63
2018-04-17T18:09:16.505Z,6.70
2018-04-17T18:11:43.172Z,8.00
2018-04-17T18:14:10.462Z,6.97
2018-04-17T18:16:36.950Z,6.97
2018-04-17T18:19:04.252Z,5.90
2018-04-17T18:21:30.814Z,6.87
2018-04-17T18:23:57.308Z,6.73
2018-04-17T18:26:23.843Z,8.57
2018-04-17T18:28:50.366Z,8.93
2018-04-17T18:31:16.961Z,5.77
2018-04-17T18:33:43.505Z,5.70
2018-04-17T18:36:10.967Z,7.63
2018-04-17T18:38:38.537Z,5.87
2018-04-17T18:41:05.837Z,7.83
2018-04-17T18:43:32.361Z,6.67
2018-04-17T18:45:58.903Z,6.23
2018-04-17T18:48:25.486Z,4.40
2018-04-17T18:50:52.781Z,5.00
2018-04-17T18:53:19.335Z,8.43
2018-04-17T18:55:45.841Z,5.97
2018-04-17T18:58:12.389Z,5.47
2018-04-17T19:00:38.953Z,7.73
2018-04-17T19:03:05.779Z,8.73
2018-04-17T19:05:32.376Z,6.40
2018-04-17T19:08:00.650Z,5.50
2018-04-17T19:10:27.297Z,5.53
2018-04-17T19:12:53.843Z,6.57
2018-04-17T19:15:20.666Z,6.00
2018-04-17T19:17:47.954Z,9.37
2018-04-17T19:20:14.538Z,6.90
2018-04-17T19:22:41.048Z,5.83
2018-04-17T19:25:07.619Z,5.50
2018-04-17T19:27:34.928Z,6.87
2018-04-17T19:30:01.480Z,7.53
2018-04-17T19:32:28.293Z,7.13
2018-04-17T19:34:54.823Z,8.57
2018-04-17T19:37:21.367Z,7.90
2018-04-17T19:39:47.907Z,7.63
2018-04-17T19:42:14.527Z,11.07
2018-04-17T19:44:41.422Z,8.80
2018-04-17T19:47:08.021Z,8.73
2018-04-17T19:49:34.761Z,8.37
2018-04-17T19:52:01.362Z,9.83
2018-04-17T19:54:28.078Z,15.43
2018-04-17T19:56:55.387Z,11.10
2018-04-17T19:59:22.075Z,8.70
2018-04-17T20:01:49.509Z,8.30
2018-04-17T20:04:16.122Z,8.17
2018-04-17T20:06:43.198Z,8.47
2018-04-17T20:09:09.746Z,9.30
2018-04-17T20:11:36.434Z,8.23
2018-04-17T20:14:03.009Z,7.97
2018-04-17T20:16:29.716Z,9.27
2018-04-17T20:18:56.322Z,12.33
2018-04-17T20:21:23.137Z,9.10
2018-04-17T20:23:49.758Z,9.43
2018-04-17T20:26:16.473Z,9.10
2018-04-17T20:28:43.039Z,10.00
2018-04-17T20:31:09.706Z,9.03
2018-04-17T20:33:37.220Z,9.33
2018-04-17T20:36:04.047Z,10.30
2018-04-17T20:38:30.561Z,8.50
2018-04-17T20:40:57.270Z,9.37
2018-04-17T20:43:24.799Z,10.07
2018-04-17T20:45:51.415Z,9.73
2018-04-17T20:48:18.041Z,9.23
2018-04-17T20:50:44.689Z,9.70
2018-04-17T20:53:11.204Z,12.23
2018-04-17T20:55:37.774Z,9.30
2018-04-17T20:58:04.557Z,9.13
2018-04-17T21:00:31.844Z,10.30
2018-04-17T21:02:58.453Z,10.27
2018-04-17T21:05:25.836Z,9.63
2018-04-17T21:07:52.361Z,10.60
2018-04-17T21:10:18.903Z,10.30
2018-04-17T21:12:45.441Z,9.07
2018-04-17T21:15:11.987Z,9.63
2018-04-17T21:17:38.526Z,11.63
2018-04-17T21:20:05.032Z,10.93
2018-04-17T21:22:32.238Z,12.43
2018-04-17T21:24:58.966Z,11.70
2018-04-17T21:27:25.500Z,10.63
2018-04-17T21:29:52.227Z,12.70
2018-04-17T21:32:18.725Z,14.40
2018-04-17T21:34:45.238Z,10.57
2018-04-17T21:37:11.741Z,11.53
2018-04-17T21:39:38.198Z,11.43
2018-04-17T21:42:04.687Z,12.27
2018-04-17T21:44:31.204Z,13.93
2018-04-17T21:46:57.833Z,12.10
2018-04-17T21:49:24.308Z,11.23
2018-04-17T21:51:50.879Z,12.00
2018-04-17T21:54:17.379Z,11.33
2018-04-17T21:56:43.879Z,11.43
2018-04-17T21:59:10.427Z,11.63
2018-04-17T22:01:36.985Z,10.80
2018-04-17T22:04:03.642Z,10.30
2018-04-17T22:06:30.146Z,11.77
2018-04-17T22:08:56.645Z,11.10
2018-04-17T22:11:23.916Z,13.33
2018-04-17T22:13:50.347Z,12.23
2018-04-17T22:16:16.806Z,12.90
2018-04-17T22:18:43.323Z,12.37
2018-04-17T22:21:09.844Z,13.10
2018-04-17T22:23:36.318Z,12.50
2018-04-17T22:26:02.794Z,12.30
2018-04-17T22:28:30.030Z,11.80
2018-04-17T22:30:57.289Z,12.03
2018-04-17T22:33:24.515Z,11.73
2018-04-17T22:35:51.032Z,13.23
2018-04-17T22:38:17.525Z,12.33
2018-04-17T22:40:44.712Z,13.10
2018-04-17T22:43:11.345Z,12.50
2018-04-17T22:45:37.781Z,11.20
2018-04-17T22:48:04.366Z,12.10
2018-04-17T22:50:30.841Z,12.40
2018-04-17T22:52:57.342Z,14.63
2018-04-17T22:55:23.983Z,14.77
2018-04-17T22:57:50.696Z,13.73
2018-04-17T23:00:17.230Z,12.57
2018-04-17T23:02:43.661Z,13.40
2018-04-17T23:05:10.160Z,13.43
2018-04-17T23:07:36.610Z,12.87
2018-04-17T23:10:03.230Z,14.53
2018-04-17T23:12:29.743Z,13.87
2018-04-17T23:14:56.326Z,14.40
2018-04-17T23:17:22.773Z,13.70
2018-04-17T23:19:49.364Z,15.00
2018-04-17T23:22:15.820Z,13.73
2018-04-17T23:24:42.409Z,13.40
2018-04-17T23:27:08.925Z,14.33
2018-04-17T23:29:35.465Z,12.80
2018-04-17T23:32:01.967Z,14.97
2018-04-17T23:34:28.428Z,13.33
2018-04-17T23:36:54.895Z,13.10
2018-04-17T23:39:21.380Z,15.27
2018-04-17T23:41:47.840Z,14.50
2018-04-17T23:44:15.049Z,13.70
2018-04-17T23:46:41.561Z,12.70
2018-04-17T23:49:08.018Z,14.43
2018-04-17T23:51:34.504Z,13.70
2018-04-17T23:54:01.722Z,14.57
2018-04-17T23:56:28.251Z,14.67
2018-04-17T23:58:54.784Z,14.03
